createdAt,value
2023-03-21T00:00:31.897Z,24.57
2023-03-21T00:03:00.105Z,24.57
2023-03-21T00:05:28.274Z,25.40
2023-03-21T00:07:56.239Z,23.77
2023-03-21T00:10:39.018Z,22.73
2023-03-21T00:13:08.225Z,23.70
2023-03-21T00:16:04.011Z,20.90
2023-03-21T00:18:36.832Z,21.67
2023-03-21T00:21:37.616Z,23.53
2023-03-21T00:23:54.943Z,20.07
2023-03-21T00:26:23.586Z,23.60
2023-03-21T00:28:52.039Z,18.20
2023-03-21T00:31:23.176Z,19.07
2023-03-21T00:33:51.191Z,22.03
2023-03-21T00:36:19.191Z,20.83
2023-03-21T00:38:47.088Z,24.87
2023-03-21T00:41:25.796Z,23.63
2023-03-21T00:43:59.637Z,29.47
2023-03-21T00:46:42.748Z,26.17
2023-03-21T00:49:13.574Z,25.73
2023-03-21T00:51:43.633Z,21.77
2023-03-21T00:54:13.594Z,22.60
2023-03-21T00:56:42.323Z,27.73
2023-03-21T00:59:11.176Z,30.60
2023-03-21T01:01:40.400Z,23.40
2023-03-21T01:04:13.614Z,25.40
2023-03-21T01:06:43.307Z,25.07
2023-03-21T01:09:14.939Z,25.77
2023-03-21T01:11:43.282Z,21.80
2023-03-21T01:14:28.564Z,23.30
2023-03-21T01:16:57.943Z,21.33
2023-03-21T01:19:41.006Z,25.83
2023-03-21T01:22:16.405Z,25.20
2023-03-21T01:24:52.956Z,25.20
2023-03-21T01:27:23.580Z,22.53
2023-03-21T01:29:51.994Z,22.40
2023-03-21T01:32:21.837Z,20.87
2023-03-21T01:34:49.949Z,21.70
2023-03-21T01:37:20.000Z,21.13
2023-03-21T01:39:50.485Z,19.67
2023-03-21T01:42:18.421Z,22.10
2023-03-21T01:44:56.725Z,27.20
2023-03-21T01:47:27.198Z,18.30
2023-03-21T01:50:10.400Z,17.53
2023-03-21T01:52:56.673Z,18.33
2023-03-21T01:55:33.944Z,21.43
2023-03-21T01:58:14.083Z,15.80
2023-03-21T02:00:52.415Z,20.83
2023-03-21T02:03:38.229Z,15.97
2023-03-21T02:06:31.998Z,17.03
2023-03-21T02:09:13.163Z,19.50
2023-03-21T02:11:46.405Z,19.37
2023-03-21T02:14:26.567Z,17.27
2023-03-21T02:17:11.925Z,16.00
2023-03-21T02:20:42.905Z,16.00
2023-03-21T02:23:45.520Z,13.47
2023-03-21T02:26:52.499Z,14.60
2023-03-21T02:29:54.835Z,13.00
2023-03-21T02:32:38.100Z,14.80
2023-03-21T02:35:25.757Z,15.10
2023-03-21T02:38:01.371Z,14.60
2023-03-21T02:40:36.322Z,16.03
2023-03-21T02:43:20.861Z,16.03
2023-03-21T02:45:54.251Z,15.20
2023-03-21T02:48:35.337Z,14.30
2023-03-21T02:51:14.088Z,17.80
2023-03-21T02:53:51.717Z,16.60
2023-03-21T02:56:27.333Z,17.77
2023-03-21T02:58:57.227Z,20.20
2023-03-21T03:01:26.025Z,25.53
2023-03-21T03:03:54.294Z,24.80
2023-03-21T03:06:27.857Z,25.63
2023-03-21T03:09:08.762Z,25.67
2023-03-21T03:11:38.892Z,30.43
2023-03-21T03:17:21.421Z,31.10
2023-03-21T03:20:16.201Z,30.00
2023-03-21T03:22:53.228Z,35.47
2023-03-21T03:25:41.715Z,30.83
2023-03-21T03:28:12.788Z,35.30
2023-03-21T03:30:48.694Z,34.80
2023-03-21T03:33:26.697Z,34.63
2023-03-21T03:36:04.916Z,29.70
2023-03-21T03:38:38.046Z,30.70
2023-03-21T03:41:11.725Z,30.77
2023-03-21T03:43:54.001Z,31.50
2023-03-21T03:46:29.383Z,32.03
2023-03-21T03:49:01.597Z,32.70
2023-03-21T03:51:34.921Z,32.43
2023-03-21T03:54:26.994Z,27.07
2023-03-21T03:56:57.515Z,34.47
2023-03-21T03:59:26.207Z,29.57
2023-03-21T04:02:15.111Z,38.13
2023-03-21T04:04:43.357Z,35.00
2023-03-21T04:07:11.367Z,32.20
2023-03-21T04:09:44.531Z,30.93
2023-03-21T04:12:16.159Z,37.37
2023-03-21T04:15:04.905Z,36.77
2023-03-21T04:17:39.597Z,34.87
2023-03-21T04:20:15.067Z,37.37
2023-03-21T04:22:44.815Z,40.30
2023-03-21T04:25:18.994Z,35.50
2023-03-21T04:27:57.508Z,37.43
2023-03-21T04:30:39.788Z,38.93
2023-03-21T04:33:14.233Z,41.43
2023-03-21T04:35:50.202Z,37.57
2023-03-21T04:38:19.274Z,36.43
2023-03-21T04:40:47.263Z,41.13
2023-03-21T04:43:16.588Z,48.30
2023-03-21T04:45:44.581Z,41.90
2023-03-21T04:48:14.302Z,41.20
2023-03-21T04:50:42.385Z,39.80
2023-03-21T04:53:10.295Z,38.17
2023-03-21T04:55:38.599Z,41.90
2023-03-21T04:58:07.639Z,39.63
2023-03-21T05:00:38.447Z,40.20
2023-03-21T05:03:09.002Z,39.30
2023-03-21T05:05:37.854Z,39.70
2023-03-21T05:08:07.333Z,39.13
2023-03-21T05:10:35.567Z,38.00
2023-03-21T05:13:03.775Z,41.07
2023-03-21T05:15:34.114Z,41.37
2023-03-21T05:18:10.967Z,39.57
2023-03-21T05:20:47.237Z,43.67
2023-03-21T05:23:18.467Z,39.30
2023-03-21T05:25:46.787Z,38.50
2023-03-21T05:28:31.358Z,44.20
2023-03-21T05:31:01.703Z,40.93
2023-03-21T05:33:31.545Z,36.80
2023-03-21T05:35:59.801Z,39.90
2023-03-21T05:38:31.549Z,38.23
2023-03-21T05:41:00.197Z,36.83
2023-03-21T05:43:28.927Z,35.43
2023-03-21T05:45:57.169Z,31.20
2023-03-21T05:48:28.791Z,33.90
2023-03-21T05:51:12.428Z,35.13
2023-03-21T05:53:40.400Z,39.10
2023-03-21T05:56:09.843Z,37.03
2023-03-21T05:58:51.813Z,32.47
2023-03-21T06:01:20.753Z,39.00
2023-03-21T06:03:57.040Z,69.53
2023-03-21T06:06:29.450Z,62.60
2023-03-21T06:09:01.991Z,91.70
2023-03-21T06:11:34.601Z,54.20
2023-03-21T06:14:31.916Z,53.17
2023-03-21T06:17:20.176Z,44.80
2023-03-21T06:19:52.893Z,54.43
2023-03-21T06:22:35.876Z,35.57
2023-03-21T06:25:05.449Z,35.43
2023-03-21T06:27:33.611Z,35.00
2023-03-21T06:30:01.783Z,36.20
2023-03-21T06:32:35.640Z,40.37
2023-03-21T06:35:11.123Z,38.23
2023-03-21T06:37:40.923Z,41.03
2023-03-21T06:40:13.753Z,41.20
2023-03-21T06:42:43.328Z,34.67
2023-03-21T06:45:12.746Z,40.70
2023-03-21T06:47:40.818Z,37.53
2023-03-21T06:50:16.554Z,35.20
2023-03-21T06:52:47.190Z,32.83
2023-03-21T06:55:16.085Z,36.67
2023-03-21T06:57:44.602Z,36.33
2023-03-21T07:00:14.648Z,42.10
2023-03-21T07:02:48.302Z,33.83
2023-03-21T07:05:19.786Z,37.37
2023-03-21T07:07:49.470Z,35.37
2023-03-21T07:10:17.591Z,36.30
2023-03-21T07:13:02.748Z,36.20
2023-03-21T07:15:49.261Z,33.40
2023-03-21T07:18:17.293Z,33.83
2023-03-21T07:20:50.909Z,30.07
2023-03-21T07:23:21.592Z,34.67
2023-03-21T07:25:50.543Z,30.57
2023-03-21T07:28:19.840Z,27.70
2023-03-21T07:30:53.918Z,31.30
2023-03-21T07:33:23.185Z,29.30
2023-03-21T07:35:51.577Z,31.90
2023-03-21T07:38:21.787Z,34.07
2023-03-21T07:40:50.425Z,26.70
2023-03-21T07:45:57.891Z,23.47
2023-03-21T07:48:27.757Z,27.00
2023-03-21T07:50:55.603Z,23.33
2023-03-21T07:53:24.986Z,21.90
2023-03-21T07:55:53.143Z,21.73
2023-03-21T07:58:21.091Z,17.07
2023-03-21T08:00:49.090Z,16.40
2023-03-21T08:03:17.156Z,16.70
2023-03-21T08:05:45.555Z,18.23
2023-03-21T08:08:13.839Z,22.27
2023-03-21T08:10:44.826Z,18.33
2023-03-21T08:13:13.814Z,15.20
2023-03-21T08:15:42.498Z,13.73
2023-03-21T08:18:11.446Z,14.00
2023-03-21T08:20:39.682Z,13.87
2023-03-21T08:23:07.594Z,13.47
2023-03-21T08:25:35.703Z,12.50
2023-03-21T08:28:05.420Z,12.63
2023-03-21T08:30:33.482Z,14.93
2023-03-21T08:33:02.303Z,13.23
2023-03-21T08:35:31.481Z,11.47
2023-03-21T08:37:59.402Z,9.93
2023-03-21T08:40:27.293Z,12.17
2023-03-21T08:42:55.974Z,9.70
2023-03-21T08:45:27.073Z,11.00
2023-03-21T08:47:56.080Z,9.73
2023-03-21T08:50:26.622Z,9.73
2023-03-21T08:52:55.049Z,9.70
2023-03-21T08:55:22.995Z,9.40
2023-03-21T08:57:50.881Z,10.93
2023-03-21T09:00:20.718Z,8.77
2023-03-21T09:02:52.306Z,8.80
2023-03-21T09:05:20.426Z,8.50
2023-03-21T09:07:49.675Z,9.00
2023-03-21T09:10:21.434Z,9.70
2023-03-21T09:12:51.169Z,9.47
2023-03-21T09:15:21.836Z,15.00
2023-03-21T09:17:53.222Z,8.20
2023-03-21T09:20:26.343Z,10.20
2023-03-21T09:22:55.009Z,11.70
2023-03-21T09:25:23.750Z,10.47
2023-03-21T09:27:54.394Z,12.20
2023-03-21T09:30:24.882Z,11.70
2023-03-21T09:32:55.956Z,11.30
2023-03-21T09:35:24.788Z,11.63
2023-03-21T09:37:52.843Z,11.57
2023-03-21T09:40:25.579Z,13.53
2023-03-21T09:43:05.933Z,10.23
2023-03-21T09:45:39.703Z,12.20
2023-03-21T09:48:20.060Z,10.13
2023-03-21T09:50:48.605Z,11.53
2023-03-21T09:53:23.628Z,8.03
2023-03-21T09:55:52.024Z,7.60
2023-03-21T09:58:27.168Z,9.03
2023-03-21T10:01:02.503Z,8.17
2023-03-21T10:03:35.177Z,7.93
2023-03-21T10:06:08.410Z,10.70
2023-03-21T10:08:38.608Z,8.10
2023-03-21T10:11:13.297Z,8.53
2023-03-21T10:13:45.669Z,8.77
2023-03-21T10:16:16.842Z,10.23
2023-03-21T10:18:46.889Z,11.40
2023-03-21T10:21:47.569Z,9.10
2023-03-21T10:24:13.143Z,8.50
2023-03-21T10:26:42.130Z,7.87
2023-03-21T10:29:15.096Z,8.13
2023-03-21T10:31:44.276Z,10.37
2023-03-21T10:34:19.116Z,9.80
2023-03-21T10:36:47.948Z,5.83
2023-03-21T10:39:26.264Z,7.50
2023-03-21T10:41:54.773Z,7.37
2023-03-21T10:44:22.968Z,7.93
2023-03-21T10:46:54.159Z,8.97
2023-03-21T10:49:23.689Z,8.37
2023-03-21T10:51:54.642Z,7.50
2023-03-21T10:54:27.761Z,11.30
2023-03-21T10:56:58.993Z,7.87
2023-03-21T10:59:35.682Z,8.40
2023-03-21T11:02:05.838Z,8.07
2023-03-21T11:04:38.027Z,8.20
2023-03-21T11:07:08.216Z,9.40
2023-03-21T11:09:48.080Z,5.60
2023-03-21T11:12:17.597Z,5.30
2023-03-21T11:14:47.399Z,6.63
2023-03-21T11:17:29.200Z,4.53
2023-03-21T11:20:02.046Z,4.93
2023-03-21T11:22:32.154Z,3.80
2023-03-21T11:25:01.816Z,4.90
2023-03-21T11:27:31.159Z,4.67
2023-03-21T11:30:02.119Z,4.43
2023-03-21T11:32:34.909Z,5.30
2023-03-21T11:35:07.496Z,4.97
2023-03-21T11:37:40.481Z,4.80
2023-03-21T11:40:21.060Z,6.57
2023-03-21T11:42:51.831Z,5.43
2023-03-21T11:45:22.038Z,4.90
2023-03-21T11:47:51.879Z,5.60
2023-03-21T11:50:28.407Z,4.70
2023-03-21T11:53:13.853Z,9.30
2023-03-21T11:55:52.552Z,4.50
2023-03-21T11:58:38.849Z,4.23
2023-03-21T12:01:17.656Z,4.37
2023-03-21T12:03:49.462Z,5.00
2023-03-21T12:06:25.867Z,4.17
2023-03-21T12:09:07.107Z,4.37
2023-03-21T12:11:42.005Z,3.90
2023-03-21T12:14:20.117Z,3.67
2023-03-21T12:17:05.961Z,3.70
2023-03-21T12:19:56.567Z,4.60
2023-03-21T12:22:33.797Z,5.50
2023-03-21T12:25:08.706Z,4.00
2023-03-21T12:27:46.555Z,4.67
2023-03-21T12:30:25.289Z,4.00
2023-03-21T12:33:09.062Z,4.13
2023-03-21T12:35:51.980Z,4.37
2023-03-21T12:38:25.232Z,4.40
2023-03-21T12:41:12.818Z,5.33
2023-03-21T12:43:48.766Z,6.00
2023-03-21T12:46:23.417Z,4.33
2023-03-21T12:48:55.177Z,5.93
2023-03-21T12:51:27.564Z,4.10
2023-03-21T12:54:03.402Z,4.47
2023-03-21T12:56:33.713Z,4.60
2023-03-21T12:59:12.146Z,4.40
2023-03-21T13:01:41.564Z,7.27
2023-03-21T13:04:27.882Z,5.30
2023-03-21T13:06:58.960Z,5.23
2023-03-21T13:09:37.782Z,5.03
2023-03-21T13:12:20.968Z,4.97
2023-03-21T13:15:00.368Z,5.20
2023-03-21T13:17:35.047Z,5.30
2023-03-21T13:20:12.472Z,11.67
2023-03-21T13:22:40.485Z,6.80
2023-03-21T13:25:19.503Z,5.97
2023-03-21T13:27:54.196Z,4.90
2023-03-21T13:30:26.068Z,5.67
2023-03-21T13:33:05.685Z,5.53
2023-03-21T13:35:39.211Z,6.90
2023-03-21T13:38:16.386Z,5.70
2023-03-21T13:40:49.575Z,5.57
2023-03-21T13:43:40.753Z,5.80
2023-03-21T13:46:11.146Z,5.53
2023-03-21T13:48:57.739Z,5.47
2023-03-21T13:51:47.469Z,7.73
2023-03-21T13:54:22.522Z,6.60
2023-03-21T13:56:54.331Z,6.13
2023-03-21T13:59:38.458Z,5.63
2023-03-21T14:02:24.244Z,5.90
2023-03-21T14:05:05.253Z,9.30
2023-03-21T14:07:36.730Z,5.60
2023-03-21T14:10:09.669Z,11.10
2023-03-21T14:12:43.425Z,6.20
2023-03-21T14:15:19.522Z,6.97
2023-03-21T14:17:52.113Z,5.90
2023-03-21T14:20:22.760Z,8.77
2023-03-21T14:22:51.249Z,6.23
2023-03-21T14:25:20.998Z,6.60
2023-03-21T14:27:54.281Z,7.33
2023-03-21T14:30:25.598Z,5.27
2023-03-21T14:32:55.997Z,7.53
2023-03-21T14:35:24.566Z,5.17
2023-03-21T14:37:52.458Z,4.93
2023-03-21T14:40:23.141Z,7.70
2023-03-21T14:42:52.690Z,6.03
2023-03-21T14:45:24.001Z,4.53
2023-03-21T14:48:05.636Z,5.00
2023-03-21T14:50:41.137Z,4.53
2023-03-21T14:53:15.409Z,3.80
2023-03-21T14:55:45.327Z,4.30
2023-03-21T14:58:17.895Z,4.23
2023-03-21T15:00:49.856Z,4.53
2023-03-21T15:03:19.717Z,4.47
2023-03-21T15:05:47.948Z,4.30
2023-03-21T15:08:18.420Z,5.60
2023-03-21T15:11:06.247Z,6.50
2023-03-21T15:13:38.289Z,11.53
2023-03-21T15:16:07.177Z,7.67
2023-03-21T15:18:38.149Z,7.63
2023-03-21T15:21:10.282Z,6.23
2023-03-21T15:23:41.402Z,6.20
2023-03-21T15:26:16.145Z,5.70
2023-03-21T15:28:47.774Z,7.30
2023-03-21T15:31:18.893Z,8.03
2023-03-21T15:33:48.676Z,8.23
2023-03-21T15:36:20.953Z,6.97
2023-03-21T15:38:49.651Z,8.97
2023-03-21T15:41:29.113Z,7.57
2023-03-21T15:44:12.440Z,6.97
2023-03-21T15:46:42.923Z,8.10
2023-03-21T15:49:18.966Z,6.20
2023-03-21T15:51:50.136Z,6.43
2023-03-21T15:54:24.544Z,5.43
2023-03-21T15:56:55.980Z,7.70
2023-03-21T15:59:31.310Z,7.93
2023-03-21T16:01:59.478Z,7.73
2023-03-21T16:04:27.466Z,6.90
2023-03-21T16:07:00.190Z,6.00
2023-03-21T16:09:28.443Z,6.63
2023-03-21T16:11:57.488Z,6.43
2023-03-21T16:14:28.523Z,7.50
2023-03-21T16:16:57.336Z,5.93
2023-03-21T16:19:27.704Z,6.63
2023-03-21T16:21:55.660Z,5.67
2023-03-21T16:24:23.511Z,7.67
2023-03-21T16:26:53.430Z,6.00
2023-03-21T16:29:22.267Z,6.97
2023-03-21T16:31:51.586Z,6.00
2023-03-21T16:34:19.535Z,5.10
2023-03-21T16:36:48.000Z,8.50
2023-03-21T16:39:19.089Z,6.93
2023-03-21T16:41:47.442Z,12.70
2023-03-21T16:44:15.496Z,6.87
2023-03-21T16:46:43.781Z,11.03
2023-03-21T16:49:21.340Z,9.13
2023-03-21T16:51:49.234Z,8.23
2023-03-21T16:54:17.217Z,10.63
2023-03-21T16:56:48.063Z,9.13
2023-03-21T16:59:16.436Z,9.10
2023-03-21T17:01:45.852Z,7.93
2023-03-21T17:04:14.861Z,7.90
2023-03-21T17:06:47.369Z,10.63
2023-03-21T17:09:16.982Z,11.67
2023-03-21T17:11:45.256Z,8.73
2023-03-21T17:14:16.219Z,9.70
2023-03-21T17:16:44.283Z,9.33
2023-03-21T17:19:14.902Z,8.27
2023-03-21T17:21:42.891Z,10.30
2023-03-21T17:24:12.374Z,12.00
2023-03-21T17:26:40.659Z,9.70
2023-03-21T17:29:08.837Z,9.13
2023-03-21T17:31:38.052Z,8.50
2023-03-21T17:34:06.247Z,9.50
2023-03-21T17:36:36.247Z,8.33
2023-03-21T17:39:05.899Z,11.43
2023-03-21T17:41:35.815Z,7.63
2023-03-21T17:44:03.901Z,11.17
2023-03-21T17:46:36.530Z,6.83
2023-03-21T17:49:05.058Z,9.33
2023-03-21T17:51:33.190Z,11.20
2023-03-21T17:54:01.285Z,11.60
2023-03-21T17:56:31.065Z,12.50
2023-03-21T17:59:02.020Z,10.53
2023-03-21T18:01:30.963Z,10.90
2023-03-21T18:04:02.122Z,11.80
2023-03-21T18:06:30.098Z,15.20
2023-03-21T18:08:59.635Z,15.00
2023-03-21T18:11:28.658Z,12.60
2023-03-21T18:14:09.897Z,11.10
2023-03-21T18:16:44.629Z,14.93
2023-03-21T18:19:13.777Z,12.10
2023-03-21T18:21:45.293Z,10.97
2023-03-21T18:24:14.361Z,11.30
2023-03-21T18:26:42.565Z,15.20
2023-03-21T18:32:06.890Z,14.40
2023-03-21T18:34:35.949Z,14.37
2023-03-21T18:37:04.437Z,16.93
2023-03-21T18:39:33.253Z,13.67
2023-03-21T18:42:02.452Z,15.20
2023-03-21T18:44:37.317Z,13.73
2023-03-21T18:47:08.588Z,14.27
2023-03-21T18:52:27.320Z,14.07
2023-03-21T18:54:55.458Z,14.57
2023-03-21T18:57:39.368Z,16.63
2023-03-21T19:00:15.397Z,17.83
2023-03-21T19:02:48.030Z,25.13
2023-03-21T19:05:18.598Z,20.43
2023-03-21T19:07:47.758Z,20.20
2023-03-21T19:10:18.652Z,18.93
2023-03-21T19:12:47.947Z,22.67
2023-03-21T19:15:19.427Z,17.47
2023-03-21T19:20:38.317Z,19.20
2023-03-21T19:23:09.348Z,23.03
2023-03-21T19:25:38.132Z,21.00
2023-03-21T19:28:06.459Z,21.70
2023-03-21T19:30:34.750Z,15.60
2023-03-21T19:33:03.965Z,18.10
2023-03-21T19:35:32.048Z,19.70
2023-03-21T19:37:59.928Z,17.50
2023-03-21T19:40:27.902Z,18.40
2023-03-21T19:42:57.640Z,19.33
2023-03-21T19:45:26.157Z,17.37
2023-03-21T19:47:54.010Z,16.43
2023-03-21T19:50:49.173Z,15.20
2023-03-21T19:53:17.052Z,18.80
2023-03-21T19:55:44.912Z,16.20
2023-03-21T19:58:16.175Z,16.40
2023-03-21T20:00:45.791Z,15.07
2023-03-21T20:03:13.805Z,14.03
2023-03-21T20:05:44.089Z,12.37
2023-03-21T20:08:12.248Z,13.80
2023-03-21T20:10:40.668Z,13.00
2023-03-21T20:13:08.914Z,13.53
2023-03-21T20:15:46.012Z,14.47
2023-03-21T20:18:16.027Z,15.67
2023-03-21T20:20:46.309Z,15.37
2023-03-21T20:23:16.024Z,14.97
2023-03-21T20:25:45.583Z,14.47
2023-03-21T20:28:17.271Z,24.50
2023-03-21T20:30:53.976Z,22.13
2023-03-21T20:33:22.174Z,24.13
2023-03-21T20:38:45.666Z,25.97
2023-03-21T20:41:13.611Z,24.50
2023-03-21T20:46:29.972Z,19.93
2023-03-21T20:48:59.726Z,18.00
2023-03-21T20:54:17.770Z,19.20
2023-03-21T20:56:45.694Z,17.23
2023-03-21T20:59:25.636Z,19.23
2023-03-21T21:01:55.086Z,16.83
2023-03-21T21:04:34.327Z,17.90
2023-03-21T21:07:16.147Z,18.10
2023-03-21T21:09:44.728Z,19.07
2023-03-21T21:12:13.032Z,18.37
2023-03-21T21:14:41.676Z,19.23
2023-03-21T21:17:30.774Z,17.30
2023-03-21T21:19:58.369Z,22.83
2023-03-21T21:22:28.219Z,21.43
2023-03-21T21:24:56.206Z,21.17
2023-03-21T21:27:24.091Z,18.50
2023-03-21T21:29:52.321Z,18.70
2023-03-21T21:32:20.748Z,20.80
2023-03-21T21:34:48.971Z,22.80
2023-03-21T21:37:16.803Z,22.73
2023-03-21T21:39:46.725Z,22.30
2023-03-21T21:42:15.216Z,23.13
2023-03-21T21:44:44.917Z,18.10
2023-03-21T21:47:13.080Z,17.80
2023-03-21T21:49:41.343Z,19.20
2023-03-21T21:52:13.276Z,22.47
2023-03-21T21:54:45.541Z,19.87
2023-03-21T21:57:18.878Z,21.40
2023-03-21T21:59:46.973Z,22.17
2023-03-21T22:02:16.644Z,22.23
2023-03-21T22:04:44.800Z,18.27
2023-03-21T22:07:14.534Z,19.20
2023-03-21T22:09:43.341Z,21.47
2023-03-21T22:12:11.616Z,18.30
2023-03-21T22:14:40.962Z,18.60
2023-03-21T22:17:09.132Z,20.53
2023-03-21T22:19:39.145Z,18.07
2023-03-21T22:22:08.112Z,20.40
2023-03-21T22:24:37.457Z,20.90
2023-03-21T22:27:05.907Z,22.70
2023-03-21T22:29:33.880Z,20.10
2023-03-21T22:32:03.189Z,19.93
2023-03-21T22:34:31.080Z,21.17
2023-03-21T22:36:59.661Z,20.03
2023-03-21T22:39:28.570Z,18.70
2023-03-21T22:42:00.874Z,22.13
2023-03-21T22:44:34.425Z,19.00
2023-03-21T22:47:05.195Z,20.07
2023-03-21T22:49:33.757Z,18.87
2023-03-21T22:52:03.261Z,22.07
2023-03-21T22:54:31.979Z,21.30
2023-03-21T22:57:00.210Z,22.10
2023-03-21T22:59:28.427Z,19.80
2023-03-21T23:01:56.719Z,20.27
2023-03-21T23:04:27.302Z,23.60
2023-03-21T23:06:55.750Z,23.73
2023-03-21T23:09:23.965Z,28.80
2023-03-21T23:11:51.932Z,25.27
2023-03-21T23:14:20.830Z,30.33
2023-03-21T23:16:49.689Z,24.60
2023-03-21T23:19:19.918Z,21.07
2023-03-21T23:21:49.138Z,21.30
2023-03-21T23:24:17.082Z,22.60
2023-03-21T23:26:44.991Z,23.43
2023-03-21T23:29:12.858Z,24.27
2023-03-21T23:31:41.516Z,25.20
2023-03-21T23:34:09.473Z,23.60
2023-03-21T23:36:37.513Z,21.83
2023-03-21T23:39:06.772Z,24.23
2023-03-21T23:41:34.724Z,28.00
2023-03-21T23:44:02.750Z,28.40
2023-03-21T23:46:31.889Z,30.97
2023-03-21T23:48:59.774Z,25.17
2023-03-21T23:51:27.828Z,21.33
2023-03-21T23:53:56.588Z,24.73
2023-03-21T23:56:28.305Z,23.53
2023-03-21T23:58:58.239Z,23.23
